Steptoe Valley WMA, Nevada Weather observations

Data are for 10 minute period ending at time listed.
 Day   Time   Solar   Ave.   Ave.  Ave.  Vector  Max.   Baro.   Total    
  of    of     Rad.   Air    Rel.  Wind   Wind   Wind  Press.  Precip.   
Year   Day            Temp.  Hum.  Speed  Dir.   Gust                    
2016   (PST)  Kw/m2    F      %     mph   deg.    mph    mb.     in.     
-------------------------------------------------------------------------
 124    4:00   0.00   28.8    91    1.2     3     5.0   807.5    0.00 
 124    4:10   0.00   27.8    91    0.4   280     1.2   807.6    0.00 
 124    4:20   0.00   27.9    92    2.1   165     4.2   807.6    0.00 
 124    4:30   0.00   28.9    92    4.1   169     5.3   807.7    0.00 
 124    4:40   0.00   29.5    91    4.4   157     6.3   807.7    0.00 
 124    4:50   0.01   29.9    90    3.1   161     6.4   807.7    0.00 
 124    5:00   0.01   30.4    89    3.2   162     5.4   807.9    0.00 
 124    5:10   0.02   30.2    89    3.2   177     6.1   807.9    0.00 
 124    5:20   0.02   30.0    88    4.0   174     6.1   807.9    0.00 
 124    5:30   0.02   29.7    90    4.3   179     6.2   807.9    0.00 
 124    5:40   0.02   29.9    90    0.9   138     2.0   808.1    0.00 
 124    5:50   0.17   30.7    90    1.5   138     4.4   808.1    0.00 
 124    6:00   0.22   33.9    88    2.1   150     3.5   808.3    0.00 
 124    6:10   0.24   37.0    82    3.1   169     7.2   808.3    0.00 
 124    6:20   0.27   38.4    78    5.8   184     8.7   808.2    0.00 
 124    6:30   0.30   39.0    75    6.1   170     8.6   808.3    0.00 
 124    6:40   0.33   40.5    74    5.1   171     7.5   808.3    0.00 
 124    6:50   0.37   41.6    72    5.7   181     7.9   808.3    0.00 
 124    7:00   0.40   43.0    70    4.5   188     6.5   808.3    0.00 
 124    7:10   0.44   45.3    66    4.0   176     5.7   808.3    0.00 
 124    7:20   0.47   46.7    61    4.5   173     6.4   808.3    0.00 
 124    7:30   0.51   48.3    56    3.3   187     5.5   808.3    0.00 
 124    7:40   0.54   50.5    52    1.5   195     4.3   808.3    0.00 
 124    7:50   0.57   52.8    47    0.8   138     2.5   808.2    0.00 
 124    8:00   0.61   54.1    46    1.3   198     3.2   808.1    0.00 
 124    8:10   0.64   54.2    44    2.0   358     5.1   808.0    0.00 
 124    8:20   0.67   54.0    42    1.4    46     3.7   807.9    0.00 
 124    8:30   0.69   55.1    38    1.4   323     3.8   807.8    0.00 
 124    8:40   0.72   56.2    39    2.5   341     5.8   807.7    0.00 
 124    8:50   0.74   56.2    37    2.3   354     7.5   807.6    0.00 
 124    9:00   0.77   56.5    36    3.0    32     6.6   807.5    0.00 
 124    9:10   0.80   57.5    35    2.8    47     7.7   807.5    0.00 
 124    9:20   0.81   57.7    34    3.2   306     7.6   807.4    0.00 
 124    9:30   0.84   57.9    35    4.4    40     9.9   807.4    0.00 
 124    9:40   0.86   58.9    34    5.0    60     9.9   807.4    0.00 
 124    9:50   0.88   59.5    31    3.3    62     8.1   807.4    0.00 
 124   10:00   0.89   59.0    29    3.5   115     8.3   807.4    0.00 
 124   10:10   0.95   60.3    28    3.9    69     7.8   807.4    0.00 
 124   10:20   0.92   60.1    31    3.4   352     7.9   807.4    0.00 
 124   10:30   0.94   60.5    28    5.1   301    10.8   807.3    0.00 
 124   10:40   0.95   61.5    24    9.7   183    17.5   807.1    0.00 
 124   10:50   0.96   61.6    24    8.7   187    14.7   807.1    0.00 
 124   11:00   0.97   61.6    24    9.1   180    13.3   807.0    0.00 
 124   11:10   0.97   62.2    26    9.9   195    16.7   806.8    0.00 
 124   11:20   0.98   62.5    26   10.1   185    16.8   806.8    0.00 
 124   11:30   0.98   62.5    25    8.7   177    15.1   806.7    0.00 
 124   11:40   0.98   62.5    24    8.9   190    13.5   806.7    0.00 
 124   11:50   0.98   62.6    25    9.8   184    16.4   806.6    0.00 
 124   12:00   0.98   62.9    26    9.6   190    14.0   806.6    0.00 
 124   12:10   0.97   63.2    25    5.8   194    13.4   806.6    0.00 
 124   12:20   0.97   63.2    24   10.4   171    18.3   806.5    0.00 
 124   12:30   0.96   63.4    22    7.3   204    16.8   806.5    0.00 
 124   12:40   0.96   63.9    24    8.5   180    15.9   806.4    0.00 
 124   12:50   0.95   64.2    26   12.1   191    18.1   806.4    0.00 
 124   13:00   0.93   64.4    24    9.4   192    18.0   806.4    0.00 
 124   13:10   0.92   64.5    23    8.0   189    14.9   806.4    0.00 
 124   13:20   0.90   64.1    23    5.2   130    20.3   806.4    0.00 
 124   13:30   0.83   63.6    24    5.9   121    12.6   806.3    0.00 
 124   13:40   0.89   64.4    25    6.9   164    13.9   806.1    0.00 
 124   13:50   0.85   64.5    25    7.1   178    10.8   806.0    0.00 
 124   14:00   0.83   64.6    24    8.8   168    14.0   806.0    0.00 
 124   14:10   0.81   65.0    23    8.4   160    15.6   805.9    0.00 
 124   14:20   0.79   64.4    23    7.7   136    15.6   805.9    0.00 
 124   14:30   0.62   64.3    23    6.1   158    13.4   805.8    0.00 
 124   14:40   0.74   65.6    22    7.8   190    13.0   805.7    0.00 
 124   14:50   0.72   65.7    23   10.2   175    15.5   805.5    0.00 
 124   15:00   0.69   64.9    23    6.7   137    15.2   805.6    0.00 
 124   15:10   0.68   64.9    22    5.5   134    15.4   805.5    0.00 
 124   15:20   0.57   64.8    22    5.3   152    13.4   805.4    0.00 
 124   15:30   0.35   64.0    23    7.1   157    13.9   805.4    0.00 
 124   15:40   0.56   64.8    23    8.7   182    16.9   805.4    0.00 
 124   15:50   0.49   65.5    23    7.6   175    23.4   805.2    0.00 
 124   16:00   0.50   64.8    23    7.8   127    14.7   805.2    0.00 
 124   16:10   0.45   64.3    22    5.9   104    11.9   805.1    0.00 
 124   16:20   0.41   64.9    23    6.9   145    14.5   805.1    0.00 
 124   16:30   0.37   64.9    23    9.5   158    14.4   805.1    0.00 
 124   16:40   0.31   64.2    21   10.1   164    15.3   805.1    0.00 
 124   16:50   0.32   64.0    22    7.5   164    13.1   805.1    0.00 
 124   17:00   0.29   64.3    22    8.2   168    12.8   805.1    0.00 
 124   17:10   0.25   63.7    24    9.7   170    18.7   805.0    0.00 
 124   17:20   0.21   63.2    23    7.9   169    12.7   805.0    0.00 
 124   17:30   0.17   62.9    21   10.2   164    15.3   804.9    0.00 
 124   17:40   0.14   62.2    22    9.8   166    14.6   804.9    0.00 
 124   17:50   0.12   61.9    25    9.0   168    13.9   804.8    0.00 
 124   18:00   0.09   61.6    26    5.9   149    11.4   804.8    0.00 
 124   18:10   0.07   61.0    28    4.8   138    12.6   804.8    0.00 
 124   18:20   0.03   59.8    28    4.1   130     7.2   804.8    0.00 
 124   18:30   0.01   57.8    31    5.5   147     7.2   804.8    0.00 
 124   18:40   0.01   56.3    33    3.4   158     5.8   804.8    0.00 
 124   18:50   0.00   54.5    36    3.7   166     5.5   804.7    0.00 
 124   19:00   0.00   54.0    36    3.4   174     6.4   804.7    0.00 
 124   19:10   0.00   53.9    36    3.2   168     5.9   804.8    0.00 
 124   19:20   0.00   52.3    39    5.5   177     8.6   805.0    0.00 
 124   19:30   0.00   50.1    43    5.2   164     8.1   805.2    0.00 
 124   19:40   0.00   53.4    37    8.6   187    13.8   805.4    0.00 
 124   19:50   0.00   49.9    42    3.5   174     9.6   805.5    0.00 
 124   20:00   0.00   47.3    50    1.7   181     3.1   805.6    0.00 
 124   20:10   0.00   45.8    59    2.0   170     3.0   805.8    0.00 
 124   20:20   0.00   42.8    64    2.7   171     4.4   805.9    0.00 
 124   20:30   0.00   44.8    58    5.3   136     8.8   805.9    0.00 
 124   20:40   0.00   46.7    52    6.9   117     8.7   805.9    0.00 
 124   20:50   0.00   47.0    51    5.7   119     8.0   805.9    0.00 
 124   21:00   0.00   43.4    60    3.3   170     5.0   806.0    0.00 
 124   21:10   0.00   40.2    69    3.1   179     4.0   806.0    0.00 
 124   21:20   0.00   41.4    67    3.5   185     5.2   806.0    0.00 
 124   21:30   0.00   40.1    70    2.5   157     4.1   806.0    0.00 
 124   21:40   0.00   38.6    71    3.5   176     5.0   806.0    0.00 
 124   21:50   0.00   37.4    75    2.8   171     5.0   806.1    0.00 
 124   22:00   0.00   37.1    78    3.1   177     4.4   806.0    0.00 
 124   22:10   0.00   36.2    79    3.6   169     4.7   805.9    0.00 
 124   22:20   0.00   36.5    79    3.8   171     5.7   805.9    0.00 
 124   22:30   0.00   37.1    80    4.1   170     6.0   806.0    0.00 
 124   22:40   0.00   37.0    80    4.5   165     6.5   806.0    0.00 
 124   22:50   0.00   36.3    82    4.6   170     6.1   805.9    0.00 
 124   23:00   0.00   36.5    83    4.7   170     5.8   805.9    0.00 
 124   23:10   0.00   37.0    82    3.6   174     5.6   805.9    0.00 
 124   23:20   0.00   37.0    82    3.1   180     5.6   805.9    0.00 
 124   23:30   0.00   37.7    81    3.6   175     5.5   806.0    0.00 
 124   23:40   0.00   38.5    79    4.3   160     5.6   806.0    0.00 
 124   23:50   0.00   38.5    80    3.8   161     5.1   806.0    0.00 
 125    0:00   0.00   38.1    82    3.0   170     4.6   806.0    0.00 
 125    0:10   0.00   38.2    82    3.4   156     4.7   806.1    0.00 
 125    0:20   0.00   38.5    81    3.4   178     4.8   806.0    0.00 
 125    0:30   0.00   38.6    81    4.0   169     5.6   806.1    0.00 
 125    0:40   0.00   39.0    81    4.5   171     5.8   806.0    0.00 
 125    0:50   0.00   39.1    82    3.0   175     4.6   805.9    0.00 
 125    1:00   0.00   39.2    82    2.9   180     4.5   805.9    0.00 
 125    1:10   0.00   39.4    79    3.0   162     5.2   805.9    0.00 
 125    1:20   0.00   39.2    80    3.5   161     5.0   805.9    0.00 
 125    1:30   0.00   38.3    83    2.7   176     4.2   805.8    0.00 
 125    1:40   0.00   38.6    83    3.3   169     4.7   805.8    0.00 
 125    1:50   0.00   39.1    80    2.9   151     4.2   805.7    0.00 
 125    2:00   0.00   39.3    79    3.4   168     4.5   805.6    0.00 
 125    2:10   0.00   40.5    75    3.3   166     5.0   805.6    0.00 
 125    2:20   0.00   41.1    72    4.8   151     8.3   805.6    0.00 
 125    2:30   0.00   42.5    66    6.8   130     8.6   805.5    0.00 
 125    2:40   0.00   43.1    63    6.7   134     8.6   805.5    0.00 
 125    2:50   0.00   41.8    66    4.0   176     6.8   805.5    0.00 
 125    3:00   0.00   38.6    73    3.3   170     4.7   805.6    0.00 
 125    3:10   0.00   38.1    75    3.8   162     7.6   805.5    0.00 
 125    3:20   0.00   41.2    66    5.5   112     8.9   805.5    0.00 
 125    3:30   0.00   37.5    73    1.3   354     2.9   805.4    0.00 
 125    3:40   0.00   36.2    76    0.3   328     1.8   805.5    0.00 
 125    3:50   0.00   35.3    80    0.2   102     1.5   805.5    0.00 

Return to Steptoe Valley WMA graphs page.


Western Regional Climate Center,wrcc@dri.edu